createdAt,value
2019-06-27T00:03:01.701Z,12.58
2019-06-27T00:08:05.002Z,13.93
2019-06-27T00:13:07.743Z,11.50
2019-06-27T00:18:09.783Z,10.50
2019-06-27T00:23:14.936Z,11.90
2019-06-27T00:28:17.894Z,13.00
2019-06-27T00:33:20.923Z,13.65
2019-06-27T00:38:24.725Z,12.55
2019-06-27T00:43:27.415Z,11.75
2019-06-27T00:48:29.973Z,13.98
2019-06-27T00:53:32.257Z,12.35
2019-06-27T00:58:34.247Z,13.65
2019-06-27T01:03:37.968Z,11.08
2019-06-27T01:08:41.251Z,11.70
2019-06-27T01:13:44.231Z,12.60
2019-06-27T01:18:46.244Z,12.85
2019-06-27T01:23:51.096Z,15.55
2019-06-27T01:28:54.547Z,11.12
2019-06-27T01:33:57.358Z,11.97
2019-06-27T01:39:00.425Z,9.95
2019-06-27T01:44:05.173Z,11.00
2019-06-27T01:49:11.328Z,12.40
2019-06-27T01:54:18.258Z,11.70
2019-06-27T01:59:25.154Z,10.13
2019-06-27T02:04:27.955Z,9.98
2019-06-27T02:09:33.424Z,11.15
2019-06-27T02:14:38.788Z,14.00
2019-06-27T02:19:40.793Z,9.90
2019-06-27T02:24:44.989Z,12.03
2019-06-27T02:29:47.403Z,12.10
2019-06-27T02:34:50.287Z,12.35
2019-06-27T02:39:54.425Z,13.85
2019-06-27T02:44:57.734Z,12.90
2019-06-27T02:50:02.904Z,9.05
2019-06-27T02:55:05.054Z,10.25
2019-06-27T03:00:09.177Z,11.90
2019-06-27T03:05:13.483Z,12.20
2019-06-27T03:10:16.474Z,12.07
2019-06-27T03:15:18.546Z,8.83
2019-06-27T03:20:20.695Z,10.43
2019-06-27T03:25:23.000Z,8.75
2019-06-27T03:30:26.849Z,9.30
2019-06-27T03:35:29.169Z,9.85
2019-06-27T03:40:33.875Z,9.48
2019-06-27T03:45:39.692Z,10.10
2019-06-27T03:50:44.743Z,9.00
2019-06-27T03:55:49.295Z,14.05
2019-06-27T04:00:51.842Z,10.35
2019-06-27T04:05:54.839Z,11.03
2019-06-27T04:10:58.238Z,8.85
2019-06-27T04:16:01.873Z,9.35
2019-06-27T04:21:04.216Z,11.48
2019-06-27T04:26:06.823Z,12.20
2019-06-27T04:31:09.879Z,10.32
2019-06-27T04:36:11.894Z,11.90
2019-06-27T04:41:16.978Z,12.98
2019-06-27T04:46:20.302Z,12.15
2019-06-27T04:51:24.789Z,10.23
2019-06-27T04:56:27.131Z,10.45
2019-06-27T05:01:29.674Z,11.83
2019-06-27T05:06:31.753Z,12.05
2019-06-27T05:11:33.751Z,9.63
2019-06-27T05:16:35.981Z,9.08
2019-06-27T05:21:41.231Z,11.48
2019-06-27T05:26:45.263Z,9.15
2019-06-27T05:31:48.152Z,10.03
2019-06-27T05:36:50.691Z,7.42
2019-06-27T05:41:53.220Z,11.45
2019-06-27T05:46:57.332Z,11.28
2019-06-27T05:51:59.331Z,9.38
2019-06-27T05:57:01.404Z,7.70
2019-06-27T06:02:08.381Z,12.93
2019-06-27T06:07:10.365Z,10.78
2019-06-27T06:12:12.404Z,10.60
2019-06-27T06:17:14.702Z,7.25
2019-06-27T06:22:16.813Z,8.68
2019-06-27T06:27:18.886Z,11.05
2019-06-27T06:32:21.212Z,11.75
2019-06-27T06:37:23.294Z,9.20
2019-06-27T06:42:43.026Z,10.15
2019-06-27T06:47:54.490Z,9.45
2019-06-27T06:53:08.101Z,7.30
2019-06-27T06:58:20.278Z,9.88
2019-06-27T07:03:59.647Z,14.03
2019-06-27T07:09:26.667Z,8.75
2019-06-27T07:14:43.035Z,9.30
2019-06-27T07:20:03.068Z,6.50
2019-06-27T07:25:12.112Z,7.40
2019-06-27T07:30:24.061Z,8.30
2019-06-27T07:35:41.817Z,10.10
2019-06-27T07:41:07.634Z,8.00
2019-06-27T07:46:24.972Z,9.18
2019-06-27T07:51:31.738Z,7.20
2019-06-27T07:56:38.482Z,8.18
2019-06-27T08:01:46.392Z,6.70
2019-06-27T08:06:53.220Z,7.28
2019-06-27T08:12:07.887Z,5.58
2019-06-27T08:17:27.925Z,8.28
2019-06-27T08:22:40.240Z,7.40
2019-06-27T08:27:58.715Z,8.45
2019-06-27T08:33:09.650Z,11.22
2019-06-27T08:38:35.955Z,6.33
2019-06-27T08:43:49.718Z,6.58
2019-06-27T08:48:58.565Z,7.10
2019-06-27T08:54:06.431Z,8.13
2019-06-27T08:59:13.296Z,10.18
2019-06-27T09:04:29.610Z,7.72
2019-06-27T09:09:52.755Z,6.33
2019-06-27T09:15:02.480Z,5.42
2019-06-27T09:20:32.000Z,4.37
2019-06-27T09:25:49.924Z,6.60
2019-06-27T09:30:58.889Z,9.18
2019-06-27T09:36:35.722Z,6.97
2019-06-27T09:41:49.973Z,10.75
2019-06-27T09:47:07.200Z,5.35
2019-06-27T09:52:23.908Z,8.70
2019-06-27T09:57:39.738Z,5.28
2019-06-27T10:02:57.290Z,2.77
2019-06-27T10:08:14.085Z,4.87
2019-06-27T10:13:22.843Z,2.55
2019-06-27T10:18:33.381Z,3.95
2019-06-27T10:23:38.997Z,3.87
2019-06-27T10:29:11.079Z,2.37
2019-06-27T10:34:35.382Z,3.30
2019-06-27T10:39:38.760Z,6.05
2019-06-27T10:44:53.990Z,3.87
2019-06-27T10:50:02.718Z,4.05
2019-06-27T10:55:10.237Z,3.10
2019-06-27T11:00:42.025Z,2.02
2019-06-27T11:05:57.341Z,1.82
2019-06-27T11:11:04.186Z,2.87
2019-06-27T11:16:15.051Z,2.35
2019-06-27T11:21:25.968Z,3.15
2019-06-27T11:26:34.640Z,2.65
2019-06-27T11:31:54.738Z,2.15
2019-06-27T11:37:01.464Z,3.47
2019-06-27T11:42:07.018Z,4.58
2019-06-27T11:47:24.651Z,2.58
2019-06-27T11:52:34.424Z,7.30
2019-06-27T11:57:55.597Z,2.83
2019-06-27T12:03:00.493Z,6.00
2019-06-27T12:08:04.015Z,2.83
2019-06-27T12:13:07.821Z,1.92
2019-06-27T12:18:19.649Z,3.42
2019-06-27T12:23:32.143Z,1.75
2019-06-27T12:28:46.415Z,2.75
2019-06-27T12:34:06.149Z,3.00
2019-06-27T12:39:15.895Z,3.95
2019-06-27T12:44:32.450Z,4.92
2019-06-27T12:50:00.240Z,4.72
2019-06-27T12:54:46.139Z,2.27
2019-06-27T12:59:56.814Z,1.90
2019-06-27T13:05:01.873Z,2.27
2019-06-27T13:10:07.762Z,1.17
2019-06-27T13:15:24.058Z,2.60
2019-06-27T13:20:28.635Z,1.87
2019-06-27T13:25:34.578Z,2.25
2019-06-27T13:30:43.381Z,1.32
2019-06-27T13:35:50.647Z,2.33
2019-06-27T13:40:55.550Z,1.45
2019-06-27T13:46:06.179Z,2.85
2019-06-27T13:51:15.872Z,2.98
2019-06-27T13:56:19.989Z,3.05
2019-06-27T14:01:23.220Z,4.33
2019-06-27T14:06:28.435Z,5.20
2019-06-27T14:11:39.411Z,2.33
2019-06-27T14:16:42.152Z,2.77
2019-06-27T14:21:47.150Z,2.60
2019-06-27T14:26:55.486Z,2.37
2019-06-27T14:32:03.483Z,3.77
2019-06-27T14:37:38.141Z,2.10
2019-06-27T14:42:42.437Z,2.90
2019-06-27T14:47:49.636Z,6.92
2019-06-27T14:53:23.482Z,3.35
2019-06-27T14:58:29.449Z,2.30
2019-06-27T15:03:41.446Z,1.65
2019-06-27T15:09:02.602Z,3.02
2019-06-27T15:14:13.851Z,1.67
2019-06-27T15:19:18.191Z,1.70
2019-06-27T15:24:21.894Z,2.22
2019-06-27T15:29:32.468Z,3.02
2019-06-27T15:34:44.141Z,2.52
2019-06-27T15:40:10.331Z,2.80
2019-06-27T15:45:18.603Z,1.95
2019-06-27T15:50:32.368Z,2.52
2019-06-27T15:55:40.542Z,3.08
2019-06-27T16:00:55.471Z,1.98
2019-06-27T16:06:09.114Z,4.15
2019-06-27T16:11:10.227Z,1.72
2019-06-27T16:16:57.713Z,2.90
2019-06-27T16:22:03.007Z,2.52
2019-06-27T16:27:15.331Z,3.27
2019-06-27T16:32:18.425Z,2.92
2019-06-27T16:37:26.800Z,3.60
2019-06-27T16:42:37.613Z,2.75
2019-06-27T16:47:44.858Z,2.95
2019-06-27T16:52:56.689Z,3.20
2019-06-27T16:58:14.956Z,3.98
2019-06-27T17:03:25.618Z,2.85
2019-06-27T17:08:31.720Z,3.45
2019-06-27T17:13:54.342Z,2.58
2019-06-27T17:19:01.314Z,3.90
2019-06-27T17:24:13.378Z,2.67
2019-06-27T17:29:17.807Z,2.83
2019-06-27T17:34:20.951Z,2.58
2019-06-27T17:39:28.873Z,4.70
2019-06-27T17:44:44.378Z,2.80
2019-06-27T17:50:07.764Z,4.90
2019-06-27T17:55:19.452Z,3.83
2019-06-27T18:00:29.472Z,4.17
2019-06-27T18:05:36.379Z,3.37
2019-06-27T18:10:44.951Z,2.02
2019-06-27T18:16:01.836Z,2.22
2019-06-27T18:21:15.557Z,2.90
2019-06-27T18:26:23.919Z,4.05
2019-06-27T18:31:40.049Z,3.45
2019-06-27T18:36:47.851Z,2.58
2019-06-27T18:42:02.562Z,3.20
2019-06-27T18:47:32.741Z,3.05
2019-06-27T18:59:36.039Z,4.92
2019-06-27T19:05:16.183Z,4.75
2019-06-27T19:10:50.443Z,5.87
2019-06-27T19:16:20.698Z,3.27
2019-06-27T19:22:22.537Z,5.45
2019-06-27T19:27:45.078Z,5.15
2019-06-27T19:32:50.613Z,2.77
2019-06-27T19:38:14.889Z,6.10
2019-06-27T19:43:27.634Z,4.97
2019-06-27T19:48:29.229Z,6.42
2019-06-27T19:53:36.263Z,5.25
2019-06-27T19:58:50.179Z,6.03
2019-06-27T20:04:08.703Z,1.98
2019-06-27T20:09:30.034Z,6.47
2019-06-27T20:14:56.833Z,4.28
2019-06-27T20:20:20.851Z,6.05
2019-06-27T20:25:27.393Z,3.67
2019-06-27T20:30:36.409Z,4.62
2019-06-27T20:35:41.006Z,5.10
2019-06-27T20:46:10.466Z,6.42
2019-06-27T20:51:15.177Z,4.70
2019-06-27T20:56:23.920Z,4.87
2019-06-27T21:01:36.197Z,4.72
2019-06-27T21:06:43.882Z,4.30
2019-06-27T21:11:51.687Z,3.98
2019-06-27T21:16:55.849Z,4.33
2019-06-27T21:22:09.641Z,4.95
2019-06-27T21:27:35.667Z,5.58
2019-06-27T21:32:48.497Z,4.45
2019-06-27T21:37:58.734Z,6.95
2019-06-27T21:43:02.598Z,3.62
2019-06-27T21:48:13.408Z,5.28
2019-06-27T21:58:51.680Z,8.20
2019-06-27T22:04:05.624Z,4.30
2019-06-27T22:15:44.807Z,7.92
2019-06-27T22:20:46.981Z,4.58
2019-06-27T22:25:54.521Z,10.30
2019-06-27T22:30:59.834Z,4.97
2019-06-27T22:36:03.815Z,4.33
2019-06-27T22:41:25.384Z,5.08
2019-06-27T22:46:52.114Z,6.75
2019-06-27T22:52:24.114Z,5.20
2019-06-27T22:57:28.446Z,4.30
2019-06-27T23:02:31.907Z,3.33
2019-06-27T23:07:37.362Z,5.47
2019-06-27T23:12:40.901Z,5.10
2019-06-27T23:17:51.145Z,7.22
2019-06-27T23:22:59.163Z,5.87
2019-06-27T23:28:06.476Z,6.40
2019-06-27T23:33:11.238Z,4.05
2019-06-27T23:38:37.243Z,7.03
2019-06-27T23:43:40.708Z,8.78
2019-06-27T23:48:43.581Z,5.37
2019-06-27T23:53:51.082Z,3.92
2019-06-27T23:58:55.513Z,7.20
